KOGB/OGB METAR and TAF weather

Enter ICAO airport designator
Station Type Date Time Source
KOGB METAR 2021/04/13 07:53 UTC NOAA

KOGB 130753Z AUTO 00000KT 10SM CLR 13/09 A2995 RMK AO2 SLP140 T01280089 $


Station Type Date Time Source
KOGB Decoded METAR 2021/04/13 07:53 UTC NOAA

ORANGEBURG MUNICIPAL AIRPORT, SC, United States (KOGB) 33-28N 080-51W 59M
Apr 13, 2021 - 03:53 AM EDT / 2021.04.13 0753 UTC
Wind: Calm:0
Visibility: 10 mile(s):0
Sky conditions: clear
Temperature: 55.0 F (12.8 C)
Dew Point: 48.0 F (8.9 C)
Relative Humidity: 77%
Pressure (altimeter): 29.95 in. Hg (1014 hPa)
ob: KOGB 130753Z AUTO 00000KT 10SM CLR 13/09 A2995 RMK AO2 SLP140 T01280089
cycle: 8

Station Type Date Time Source
KOGB TAF 2021/04/13 06:27 UTC NOAA

TAF KOGB 130524Z 1306/1406 33004KT P6SM SKC
FM131400 03008KT P6SM SCT200
FM132000 VRB04KT P6SM SCT200

Example: see airport list